createdAt,value
2023-05-06T00:00:13.308Z,74.83
2023-05-06T00:02:44.792Z,74.79
2023-05-06T00:05:14.490Z,74.56
2023-05-06T00:07:43.190Z,75.28
2023-05-06T00:10:12.183Z,74.85
2023-05-06T00:12:41.279Z,75.00
2023-05-06T00:15:12.457Z,75.15
2023-05-06T00:17:41.634Z,75.10
2023-05-06T00:20:11.655Z,75.17
2023-05-06T00:22:40.565Z,75.23
2023-05-06T00:25:10.217Z,75.32
2023-05-06T00:27:39.280Z,75.36
2023-05-06T00:30:11.310Z,75.47
2023-05-06T00:32:40.299Z,75.47
2023-05-06T00:35:10.414Z,75.73
2023-05-06T00:37:39.504Z,75.80
2023-05-06T00:40:09.954Z,76.19
2023-05-06T00:42:38.804Z,75.86
2023-05-06T00:45:09.335Z,76.12
2023-05-06T00:47:39.861Z,76.23
2023-05-06T00:50:09.912Z,75.96
2023-05-06T00:52:38.809Z,76.01
2023-05-06T00:55:08.771Z,76.04
2023-05-06T00:57:37.825Z,75.98
2023-05-06T01:00:08.120Z,76.27
2023-05-06T01:02:46.588Z,76.01
2023-05-06T01:05:34.617Z,75.94
2023-05-06T01:08:13.092Z,75.91
2023-05-06T01:10:51.611Z,76.09
2023-05-06T01:13:26.873Z,76.09
2023-05-06T01:15:58.250Z,75.96
2023-05-06T01:18:28.897Z,76.41
2023-05-06T01:21:02.119Z,76.45
2023-05-06T01:23:52.437Z,76.34
2023-05-06T01:26:21.378Z,76.07
2023-05-06T01:28:50.210Z,76.45
2023-05-06T01:31:26.899Z,76.27
2023-05-06T01:34:15.872Z,76.24
2023-05-06T01:36:58.504Z,76.55
2023-05-06T01:39:32.423Z,76.53
2023-05-06T01:42:04.888Z,76.45
2023-05-06T01:44:35.610Z,76.43
2023-05-06T01:47:06.246Z,76.24
2023-05-06T01:49:36.034Z,76.68
2023-05-06T01:52:05.063Z,76.45
2023-05-06T01:54:35.274Z,76.53
2023-05-06T01:57:04.202Z,76.41
2023-05-06T01:59:34.443Z,76.53
2023-05-06T02:02:03.467Z,76.77
2023-05-06T02:04:32.737Z,76.80
2023-05-06T02:07:01.794Z,76.58
2023-05-06T02:09:31.062Z,76.86
2023-05-06T02:12:05.560Z,76.65
2023-05-06T02:14:34.641Z,76.77
2023-05-06T02:17:05.246Z,76.80
2023-05-06T02:19:34.315Z,76.88
2023-05-06T02:22:03.161Z,76.87
2023-05-06T02:24:32.491Z,76.94
2023-05-06T02:27:03.006Z,77.00
2023-05-06T02:29:33.252Z,77.21
2023-05-06T02:32:02.522Z,77.32
2023-05-06T02:34:31.390Z,77.68
2023-05-06T02:37:00.321Z,77.76
2023-05-06T02:39:29.115Z,77.75
2023-05-06T02:41:57.903Z,77.90
2023-05-06T02:44:26.651Z,77.94
2023-05-06T02:47:08.077Z,77.88
2023-05-06T02:49:37.086Z,78.25
2023-05-06T02:52:06.332Z,77.87
2023-05-06T02:54:35.304Z,77.92
2023-05-06T02:57:04.102Z,77.91
2023-05-06T02:59:32.891Z,77.94
2023-05-06T03:02:01.722Z,78.11
2023-05-06T03:04:32.213Z,77.85
2023-05-06T03:07:01.149Z,78.05
2023-05-06T03:09:30.030Z,77.91
2023-05-06T03:11:59.105Z,78.05
2023-05-06T03:14:28.380Z,77.89
2023-05-06T03:16:57.792Z,77.74
2023-05-06T03:19:26.781Z,77.73
2023-05-06T03:21:58.143Z,77.89
2023-05-06T03:24:27.403Z,77.84
2023-05-06T03:26:57.160Z,77.58
2023-05-06T03:29:26.703Z,77.94
2023-05-06T03:31:58.157Z,78.04
2023-05-06T03:34:29.084Z,78.12
2023-05-06T03:37:00.439Z,78.19
2023-05-06T03:39:30.593Z,78.14
2023-05-06T03:42:01.242Z,78.24
2023-05-06T03:44:30.517Z,78.55
2023-05-06T03:47:00.043Z,78.37
2023-05-06T03:49:30.436Z,78.37
2023-05-06T03:52:01.291Z,78.69
2023-05-06T03:54:30.574Z,78.58
2023-05-06T03:56:59.338Z,78.57
2023-05-06T03:59:28.114Z,78.76
2023-05-06T04:01:59.044Z,79.18
2023-05-06T04:04:28.591Z,79.09
2023-05-06T04:06:58.243Z,79.34
2023-05-06T04:09:28.588Z,79.07
2023-05-06T04:11:58.088Z,78.78
2023-05-06T04:14:28.649Z,78.92
2023-05-06T04:16:57.771Z,79.01
2023-05-06T04:19:27.022Z,79.01
2023-05-06T04:21:56.072Z,78.96
2023-05-06T04:24:24.826Z,78.92
2023-05-06T04:26:55.122Z,78.72
2023-05-06T04:29:24.051Z,78.69
2023-05-06T04:32:03.340Z,78.60
2023-05-06T04:34:36.732Z,78.05
2023-05-06T04:37:07.538Z,78.74
2023-05-06T04:39:49.102Z,78.82
2023-05-06T04:42:20.404Z,78.85
2023-05-06T04:45:07.590Z,78.62
2023-05-06T04:47:38.466Z,78.66
2023-05-06T04:50:08.921Z,78.41
2023-05-06T04:52:37.665Z,78.19
2023-05-06T04:55:07.497Z,78.02
2023-05-06T04:57:40.904Z,77.80
2023-05-06T05:00:11.913Z,77.61
2023-05-06T05:02:41.149Z,77.25
2023-05-06T05:05:10.646Z,77.36
2023-05-06T05:07:41.295Z,77.17
2023-05-06T05:10:11.165Z,76.79
2023-05-06T05:12:42.306Z,76.59
2023-05-06T05:15:12.133Z,75.66
2023-05-06T05:17:41.486Z,74.97
2023-05-06T05:20:11.606Z,74.19
2023-05-06T05:22:40.667Z,73.39
2023-05-06T05:25:10.302Z,72.64
